createdAt,value
2022-10-18T00:02:13.708Z,81.50
2022-10-18T00:04:40.258Z,81.52
2022-10-18T00:07:06.867Z,82.04
2022-10-18T00:09:33.611Z,82.23
2022-10-18T00:12:00.778Z,82.05
2022-10-18T00:14:27.327Z,82.08
2022-10-18T00:16:53.959Z,82.96
2022-10-18T00:19:20.472Z,81.56
2022-10-18T00:21:50.656Z,82.13
2022-10-18T00:24:17.304Z,81.93
2022-10-18T00:26:43.826Z,82.40
2022-10-18T00:29:14.186Z,82.57
2022-10-18T00:31:42.662Z,82.41
2022-10-18T00:34:14.997Z,82.23
2022-10-18T00:36:42.887Z,82.32
2022-10-18T00:39:15.576Z,82.58
2022-10-18T00:41:42.226Z,82.53
2022-10-18T00:44:11.695Z,82.62
2022-10-18T00:46:43.551Z,82.77
2022-10-18T00:49:21.808Z,82.69
2022-10-18T00:51:51.587Z,82.54
2022-10-18T00:54:19.562Z,82.28
2022-10-18T00:56:46.496Z,82.57
2022-10-18T00:59:17.981Z,82.65
2022-10-18T01:01:45.379Z,82.58
2022-10-18T01:04:14.734Z,82.32
2022-10-18T01:09:32.279Z,82.41
2022-10-18T01:12:28.957Z,82.90
2022-10-18T01:15:15.382Z,82.77
2022-10-18T01:17:54.754Z,82.73
2022-10-18T01:20:55.249Z,82.89
2022-10-18T01:23:41.975Z,82.65
2022-10-18T01:26:50.515Z,82.62
2022-10-18T01:29:16.957Z,82.15
2022-10-18T01:31:50.414Z,82.50
2022-10-18T01:34:18.789Z,82.72
2022-10-18T01:36:51.964Z,82.72
2022-10-18T01:39:29.449Z,82.17
2022-10-18T01:41:58.451Z,82.62
2022-10-18T01:44:29.443Z,82.80
2022-10-18T01:46:58.192Z,82.37
2022-10-18T01:49:25.861Z,82.86
2022-10-18T01:51:53.255Z,82.92
2022-10-18T01:54:27.663Z,82.41
2022-10-18T01:57:03.574Z,82.20
2022-10-18T02:00:01.727Z,82.79
2022-10-18T02:02:28.348Z,82.28
2022-10-18T02:04:54.894Z,83.00
2022-10-18T02:07:21.314Z,81.80
2022-10-18T02:09:58.227Z,82.80
2022-10-18T02:12:26.065Z,82.37
2022-10-18T02:14:53.304Z,82.64
2022-10-18T02:17:21.737Z,82.51
2022-10-18T02:19:51.844Z,81.72
2022-10-18T02:22:19.511Z,82.70
2022-10-18T02:24:55.157Z,83.05
2022-10-18T02:27:22.460Z,82.77
2022-10-18T02:29:49.545Z,81.86
2022-10-18T02:32:34.067Z,83.08
2022-10-18T02:35:06.797Z,83.09
2022-10-18T02:37:38.056Z,82.26
2022-10-18T02:40:07.323Z,82.49
2022-10-18T02:42:39.090Z,83.06
2022-10-18T02:45:06.797Z,82.17
2022-10-18T02:47:33.508Z,82.80
2022-10-18T02:50:00.356Z,82.15
2022-10-18T02:52:26.824Z,82.59
2022-10-18T02:54:53.355Z,83.26
2022-10-18T02:57:19.881Z,82.75
2022-10-18T02:59:46.629Z,83.00
2022-10-18T03:02:13.134Z,83.17
2022-10-18T03:04:39.639Z,82.47
2022-10-18T03:07:06.163Z,82.71
2022-10-18T03:09:32.699Z,83.06
2022-10-18T03:11:59.665Z,83.27
2022-10-18T03:14:26.155Z,82.25
2022-10-18T03:16:52.717Z,82.31
2022-10-18T03:19:19.214Z,82.32
2022-10-18T03:21:45.754Z,82.29
2022-10-18T03:24:12.323Z,82.51
2022-10-18T03:26:38.826Z,82.43
2022-10-18T03:29:05.457Z,82.79
2022-10-18T03:31:32.379Z,82.08
2022-10-18T03:33:59.031Z,82.74
2022-10-18T03:36:27.633Z,82.28
2022-10-18T03:38:54.162Z,82.59
2022-10-18T03:41:20.924Z,83.12
2022-10-18T03:43:47.732Z,83.18
2022-10-18T03:46:14.300Z,83.00
2022-10-18T03:48:40.819Z,83.32
2022-10-18T03:51:07.531Z,82.55
2022-10-18T03:53:34.007Z,82.13
2022-10-18T03:56:00.489Z,82.41
2022-10-18T03:58:27.021Z,82.02
2022-10-18T04:00:55.256Z,82.53
2022-10-18T04:03:24.237Z,82.00
2022-10-18T04:05:51.074Z,82.21
2022-10-18T04:08:18.223Z,82.81
2022-10-18T04:10:45.499Z,82.73
2022-10-18T04:13:12.119Z,82.90
2022-10-18T04:15:38.722Z,82.19
2022-10-18T04:18:05.218Z,82.58
2022-10-18T04:20:31.697Z,81.85
2022-10-18T04:22:58.358Z,82.03
2022-10-18T04:25:25.282Z,83.10
2022-10-18T04:27:52.115Z,83.25
2022-10-18T04:30:18.612Z,83.13
2022-10-18T04:32:45.073Z,83.28
2022-10-18T04:35:11.614Z,82.64
2022-10-18T04:37:38.177Z,83.90
2022-10-18T04:40:05.313Z,83.87
2022-10-18T04:42:31.958Z,83.07
2022-10-18T04:44:58.438Z,83.74
2022-10-18T04:47:24.950Z,82.89
2022-10-18T04:49:51.422Z,83.69
2022-10-18T04:52:17.905Z,84.44
2022-10-18T04:54:44.384Z,85.06
2022-10-18T04:57:10.856Z,84.25
2022-10-18T04:59:37.476Z,84.19
2022-10-18T05:02:04.837Z,84.76
2022-10-18T05:04:31.510Z,84.74
2022-10-18T05:06:58.021Z,84.93
2022-10-18T05:09:24.887Z,85.20
2022-10-18T05:11:51.541Z,85.11
2022-10-18T05:14:18.192Z,85.93
2022-10-18T05:16:44.702Z,84.74
2022-10-18T05:19:11.180Z,85.15
2022-10-18T05:21:37.963Z,84.74
2022-10-18T05:24:04.708Z,84.65
2022-10-18T05:26:33.972Z,85.12
2022-10-18T05:29:00.617Z,85.74
2022-10-18T05:31:27.276Z,84.91
2022-10-18T05:33:53.748Z,85.39
2022-10-18T05:36:20.348Z,85.85
2022-10-18T05:38:48.276Z,85.62
2022-10-18T05:41:15.147Z,85.82
2022-10-18T05:43:41.650Z,85.55
2022-10-18T05:46:13.723Z,85.94
2022-10-18T05:48:43.417Z,85.02
2022-10-18T05:51:09.916Z,85.30
2022-10-18T05:53:37.442Z,84.92
2022-10-18T05:56:04.624Z,85.20
2022-10-18T05:58:31.176Z,84.46
2022-10-18T06:01:01.999Z,85.66
2022-10-18T06:03:30.520Z,85.08
2022-10-18T06:06:04.322Z,85.15
2022-10-18T06:08:30.947Z,85.27
2022-10-18T06:10:57.522Z,85.47
2022-10-18T06:13:24.308Z,85.11
2022-10-18T06:15:50.869Z,85.41
2022-10-18T06:18:17.453Z,85.42
2022-10-18T06:20:43.974Z,85.79
2022-10-18T06:23:10.504Z,85.64
2022-10-18T06:25:37.070Z,85.24
2022-10-18T06:28:09.041Z,85.32
2022-10-18T06:30:38.000Z,85.25
2022-10-18T06:33:04.454Z,84.64
2022-10-18T06:35:31.036Z,85.04
2022-10-18T06:37:57.794Z,85.87
2022-10-18T06:40:24.608Z,84.96
2022-10-18T06:43:00.126Z,85.67
2022-10-18T06:45:26.875Z,85.80
2022-10-18T06:47:53.325Z,85.65
2022-10-18T06:50:19.775Z,85.41
2022-10-18T06:52:48.555Z,85.45
2022-10-18T06:55:15.159Z,85.45
2022-10-18T06:57:41.616Z,85.52
2022-10-18T07:00:09.022Z,85.28
2022-10-18T07:02:35.649Z,85.86
2022-10-18T07:05:02.158Z,85.06
2022-10-18T07:07:31.864Z,85.55
2022-10-18T07:09:58.758Z,85.03
2022-10-18T07:12:25.389Z,85.01
2022-10-18T07:14:51.977Z,85.77
2022-10-18T07:17:18.487Z,85.68
2022-10-18T07:19:45.004Z,85.75
2022-10-18T07:22:11.565Z,85.17
2022-10-18T07:24:38.073Z,85.29
2022-10-18T07:27:04.987Z,84.76
2022-10-18T07:29:31.978Z,85.39
2022-10-18T07:31:58.451Z,85.47
2022-10-18T07:34:25.002Z,85.11
2022-10-18T07:36:52.180Z,85.18
2022-10-18T07:39:18.736Z,84.65
2022-10-18T07:41:45.246Z,85.20
2022-10-18T07:44:11.741Z,84.91
2022-10-18T07:46:38.344Z,85.26
2022-10-18T07:49:04.858Z,85.31
2022-10-18T07:51:32.823Z,85.20
2022-10-18T07:53:59.609Z,84.64
2022-10-18T07:56:26.095Z,84.55
2022-10-18T07:58:54.386Z,84.90
2022-10-18T08:01:22.902Z,85.26
2022-10-18T08:03:50.159Z,84.86
2022-10-18T08:06:18.618Z,85.00
2022-10-18T08:08:45.878Z,84.83
2022-10-18T08:11:21.027Z,85.29
2022-10-18T08:13:47.853Z,85.21
2022-10-18T08:16:23.819Z,85.41
2022-10-18T08:18:50.899Z,84.83
2022-10-18T08:21:19.138Z,84.75
2022-10-18T08:23:46.261Z,85.40
2022-10-18T08:26:15.783Z,84.91
2022-10-18T08:28:49.125Z,85.07
2022-10-18T08:31:20.894Z,85.21
2022-10-18T08:33:47.526Z,85.23
2022-10-18T08:36:16.120Z,85.21
2022-10-18T08:38:43.698Z,85.44
2022-10-18T08:41:35.216Z,85.08
2022-10-18T08:44:24.726Z,85.12
2022-10-18T08:46:55.404Z,85.02
2022-10-18T08:49:46.804Z,84.70
2022-10-18T08:52:18.411Z,84.77
2022-10-18T08:54:55.854Z,85.38
2022-10-18T08:57:22.439Z,85.49
2022-10-18T08:59:49.029Z,85.51
2022-10-18T09:02:31.843Z,85.55
2022-10-18T09:05:28.259Z,84.79
2022-10-18T09:07:54.749Z,84.75
2022-10-18T09:10:59.714Z,84.33
2022-10-18T09:13:37.884Z,85.08
2022-10-18T09:16:11.122Z,84.41
2022-10-18T09:18:57.670Z,85.17
2022-10-18T09:21:36.948Z,84.07
2022-10-18T09:24:19.882Z,85.08
2022-10-18T09:26:49.051Z,85.09
2022-10-18T09:29:33.126Z,84.61
2022-10-18T09:32:12.447Z,85.10
2022-10-18T09:34:51.185Z,85.64
2022-10-18T09:37:21.038Z,84.74
2022-10-18T09:39:50.908Z,84.11
2022-10-18T09:42:26.980Z,85.38
2022-10-18T09:45:00.920Z,84.88
2022-10-18T09:47:41.544Z,85.80
2022-10-18T09:50:19.907Z,84.83
2022-10-18T09:52:58.828Z,85.00
2022-10-18T09:55:32.550Z,84.76
2022-10-18T09:58:02.770Z,84.45
2022-10-18T10:00:35.188Z,84.64
2022-10-18T10:03:02.686Z,84.06
2022-10-18T10:05:29.569Z,83.59
2022-10-18T10:07:59.993Z,84.53
2022-10-18T10:10:29.867Z,83.73
2022-10-18T10:13:06.943Z,83.64
2022-10-18T10:15:38.169Z,83.17
2022-10-18T10:18:22.162Z,83.30
2022-10-18T10:20:52.799Z,82.53
2022-10-18T10:23:30.735Z,82.18
2022-10-18T10:26:01.813Z,81.88
2022-10-18T10:28:31.619Z,80.18
2022-10-18T10:31:17.724Z,80.14
2022-10-18T10:33:47.629Z,80.21
2022-10-18T10:36:20.468Z,80.10
2022-10-18T10:39:04.128Z,78.83
2022-10-18T10:44:02.613Z,77.14
2022-10-18T10:46:36.664Z,76.36
2022-10-18T10:49:35.066Z,77.09
2022-10-18T10:52:08.548Z,75.73
2022-10-18T10:54:39.278Z,75.18
2022-10-18T10:57:16.609Z,73.83
2022-10-18T10:59:46.557Z,73.33
2022-10-18T11:02:15.407Z,72.12
2022-10-18T11:04:42.987Z,71.63
2022-10-18T11:07:10.263Z,70.80
2022-10-18T11:09:49.509Z,70.90
2022-10-18T11:12:25.564Z,69.92
2022-10-18T11:15:10.226Z,69.55
2022-10-18T11:17:40.795Z,68.85
2022-10-18T11:20:09.808Z,69.16
2022-10-18T11:22:45.013Z,67.03
2022-10-18T11:25:15.585Z,67.00
2022-10-18T11:27:54.734Z,67.03
2022-10-18T11:30:38.714Z,66.52
2022-10-18T11:33:17.934Z,64.65
2022-10-18T11:35:47.899Z,63.75
2022-10-18T11:38:21.738Z,62.44
2022-10-18T11:41:00.580Z,62.98
2022-10-18T11:44:00.682Z,60.59
2022-10-18T11:46:54.640Z,60.55
2022-10-18T11:49:39.144Z,60.16
2022-10-18T11:52:29.802Z,60.37
2022-10-18T11:55:06.578Z,60.09
2022-10-18T11:58:00.003Z,57.96
2022-10-18T12:00:46.852Z,58.91
2022-10-18T12:03:20.198Z,58.70
2022-10-18T12:05:50.694Z,57.76
2022-10-18T12:08:30.699Z,57.94
2022-10-18T12:11:05.500Z,57.71
2022-10-18T12:13:48.827Z,58.01
2022-10-18T12:16:33.533Z,57.84
2022-10-18T12:19:15.089Z,56.56
2022-10-18T12:21:43.770Z,57.20
2022-10-18T12:24:18.649Z,55.75
2022-10-18T12:26:48.787Z,56.02
2022-10-18T12:29:33.397Z,56.26
2022-10-18T12:32:07.528Z,56.16
2022-10-18T12:34:46.709Z,56.26
2022-10-18T12:37:32.801Z,55.23
2022-10-18T12:40:14.251Z,56.11
2022-10-18T12:42:47.204Z,55.53
2022-10-18T12:45:20.745Z,55.88
2022-10-18T12:47:47.658Z,56.43
2022-10-18T12:50:31.367Z,55.66
2022-10-18T12:53:04.222Z,56.46
2022-10-18T12:55:36.916Z,56.77
2022-10-18T12:58:21.947Z,56.04
2022-10-18T13:00:49.318Z,56.11
2022-10-18T13:03:17.407Z,56.47
2022-10-18T13:05:55.256Z,56.46
2022-10-18T13:08:34.288Z,55.51
2022-10-18T13:11:10.596Z,55.44
2022-10-18T13:13:45.868Z,55.87
2022-10-18T13:16:23.213Z,55.78
2022-10-18T13:18:57.333Z,56.06
2022-10-18T13:21:34.907Z,56.37
2022-10-18T13:24:22.556Z,56.21
2022-10-18T13:27:18.097Z,56.58
2022-10-18T13:29:56.779Z,56.40
2022-10-18T13:32:37.619Z,56.59
2022-10-18T13:35:34.127Z,57.23
2022-10-18T13:38:01.665Z,56.97
2022-10-18T13:40:29.451Z,57.19
2022-10-18T13:42:56.340Z,57.73
2022-10-18T13:45:33.522Z,57.19
2022-10-18T13:48:19.472Z,57.04
2022-10-18T13:50:49.758Z,55.91
2022-10-18T13:53:25.160Z,57.03
2022-10-18T13:55:56.040Z,57.47
2022-10-18T13:58:33.636Z,57.27
2022-10-18T14:01:14.370Z,57.14
2022-10-18T14:04:00.508Z,56.65
2022-10-18T14:06:33.821Z,56.50
2022-10-18T14:09:25.649Z,57.46
2022-10-18T14:12:16.830Z,56.55
2022-10-18T14:14:46.004Z,57.13
2022-10-18T14:17:20.391Z,56.59
2022-10-18T14:19:56.877Z,55.73
2022-10-18T14:22:33.957Z,56.51
2022-10-18T14:25:01.341Z,57.34
2022-10-18T14:27:33.093Z,56.89
2022-10-18T14:30:10.471Z,57.20
2022-10-18T14:32:37.566Z,56.80
2022-10-18T14:37:54.326Z,55.58
2022-10-18T14:40:30.837Z,56.32
2022-10-18T14:43:03.539Z,56.42
2022-10-18T14:45:30.479Z,56.24
2022-10-18T14:48:06.305Z,55.88
2022-10-18T14:50:33.851Z,56.26
2022-10-18T14:53:07.243Z,55.65
2022-10-18T14:55:35.636Z,55.60
2022-10-18T14:58:03.158Z,55.29
2022-10-18T15:00:36.267Z,55.37
2022-10-18T15:03:07.463Z,54.52
2022-10-18T15:05:34.448Z,54.64
2022-10-18T15:08:01.881Z,54.14
2022-10-18T15:10:32.669Z,54.30
2022-10-18T15:13:11.280Z,53.94
2022-10-18T15:15:39.499Z,54.87
2022-10-18T15:18:08.648Z,54.95
2022-10-18T15:20:42.825Z,54.24
2022-10-18T15:23:24.435Z,54.73
2022-10-18T15:25:53.995Z,55.42
2022-10-18T15:28:31.530Z,56.10
2022-10-18T15:30:59.087Z,56.06
2022-10-18T15:33:27.679Z,56.17
2022-10-18T15:35:55.245Z,56.85
2022-10-18T15:38:27.903Z,57.50
2022-10-18T15:40:56.597Z,56.95
2022-10-18T15:43:24.236Z,57.88
2022-10-18T15:45:55.584Z,58.17
2022-10-18T15:48:30.925Z,58.15
2022-10-18T15:51:05.327Z,58.76
2022-10-18T15:53:38.245Z,58.51
2022-10-18T15:56:07.112Z,58.70
2022-10-18T15:58:40.037Z,58.81
2022-10-18T16:01:16.412Z,58.91
2022-10-18T16:03:44.275Z,58.84
2022-10-18T16:06:15.882Z,59.71
2022-10-18T16:08:48.971Z,58.91
2022-10-18T16:11:22.204Z,59.02
2022-10-18T16:13:49.746Z,59.49
2022-10-18T16:16:20.654Z,59.59
2022-10-18T16:18:48.126Z,59.79
2022-10-18T16:21:18.156Z,60.18
2022-10-18T16:23:45.940Z,60.19
2022-10-18T16:26:13.916Z,60.22
2022-10-18T16:28:41.784Z,60.31
2022-10-18T16:31:13.241Z,60.20
2022-10-18T16:33:40.550Z,60.74
2022-10-18T16:36:07.958Z,61.06
2022-10-18T16:38:37.301Z,61.07
2022-10-18T16:41:05.755Z,61.05
2022-10-18T16:43:34.972Z,60.96
2022-10-18T16:46:03.382Z,61.07
2022-10-18T16:48:33.479Z,61.53
2022-10-18T16:51:00.978Z,61.83
2022-10-18T16:53:29.020Z,62.03
2022-10-18T16:56:00.226Z,62.95
2022-10-18T16:58:29.633Z,62.19
2022-10-18T17:00:57.129Z,62.95
2022-10-18T17:03:24.860Z,63.80
2022-10-18T17:05:53.148Z,64.01
2022-10-18T17:08:23.885Z,64.01
2022-10-18T17:10:53.285Z,64.32
2022-10-18T17:13:22.035Z,63.96
2022-10-18T17:15:50.306Z,65.06
2022-10-18T17:18:22.179Z,65.26
2022-10-18T17:20:50.146Z,65.89
2022-10-18T17:23:17.357Z,64.93
2022-10-18T17:25:57.580Z,66.04
2022-10-18T17:28:32.310Z,66.12
2022-10-18T17:30:59.345Z,66.45
2022-10-18T17:33:26.310Z,66.79
2022-10-18T17:35:53.292Z,66.64
2022-10-18T17:38:20.723Z,65.86
2022-10-18T17:40:47.669Z,65.99
2022-10-18T17:43:14.787Z,66.98
2022-10-18T17:45:51.240Z,66.44
2022-10-18T17:48:18.113Z,66.49
2022-10-18T17:50:45.669Z,66.45
2022-10-18T17:53:13.458Z,66.54
2022-10-18T17:55:40.976Z,66.86
2022-10-18T17:58:08.281Z,67.17
2022-10-18T18:00:35.359Z,67.76
2022-10-18T18:03:02.834Z,67.64
2022-10-18T18:05:33.206Z,67.67
2022-10-18T18:08:03.998Z,67.57
2022-10-18T18:10:33.820Z,67.91
2022-10-18T18:13:01.963Z,67.58
2022-10-18T18:15:29.140Z,67.58
2022-10-18T18:17:57.422Z,67.65
2022-10-18T18:20:27.221Z,67.53
2022-10-18T18:22:54.486Z,67.14
2022-10-18T18:25:21.558Z,67.20
2022-10-18T18:27:48.779Z,66.96
2022-10-18T18:30:18.199Z,66.41
2022-10-18T18:32:45.466Z,66.34
2022-10-18T18:35:12.879Z,66.82
2022-10-18T18:37:40.135Z,66.51
2022-10-18T18:40:08.287Z,65.83
2022-10-18T18:42:35.786Z,65.62
2022-10-18T18:45:03.173Z,65.38
2022-10-18T18:47:30.278Z,65.31
2022-10-18T18:49:57.309Z,65.10
2022-10-18T18:52:24.415Z,65.57
2022-10-18T18:54:51.993Z,65.89
2022-10-18T18:57:19.051Z,65.59
2022-10-18T18:59:46.758Z,64.95
2022-10-18T19:02:15.539Z,65.26
2022-10-18T19:04:42.755Z,65.31
2022-10-18T19:07:09.995Z,65.26
2022-10-18T19:09:39.072Z,65.69
2022-10-18T19:12:06.571Z,66.50
2022-10-18T19:14:34.021Z,66.26
2022-10-18T19:17:05.238Z,66.65
2022-10-18T19:19:33.129Z,66.68
2022-10-18T19:22:04.065Z,67.02
2022-10-18T19:24:33.391Z,66.84
2022-10-18T19:27:05.105Z,67.58
2022-10-18T19:29:36.037Z,67.73
2022-10-18T19:32:09.942Z,68.32
2022-10-18T19:34:37.314Z,68.03
2022-10-18T19:37:04.634Z,68.83
2022-10-18T19:39:34.702Z,68.32
2022-10-18T19:42:05.838Z,69.18
2022-10-18T19:44:36.420Z,68.44
2022-10-18T19:47:05.012Z,69.00
2022-10-18T19:49:32.632Z,69.37
2022-10-18T19:51:59.879Z,68.96
2022-10-18T19:54:27.212Z,69.85
2022-10-18T19:56:54.391Z,70.19
2022-10-18T19:59:23.182Z,69.81
2022-10-18T20:01:50.799Z,70.48
2022-10-18T20:04:18.426Z,70.29
2022-10-18T20:06:45.741Z,70.73
2022-10-18T20:09:16.250Z,70.90
2022-10-18T20:11:47.311Z,70.80
2022-10-18T20:14:14.522Z,70.69
2022-10-18T20:16:41.557Z,71.25
2022-10-18T20:19:09.877Z,70.73
2022-10-18T20:21:37.024Z,71.19
2022-10-18T20:24:06.335Z,71.31
2022-10-18T20:26:33.869Z,71.64
2022-10-18T20:29:01.000Z,71.32
2022-10-18T20:31:31.073Z,71.94
2022-10-18T20:34:01.025Z,72.35
2022-10-18T20:36:30.157Z,72.21
2022-10-18T20:38:57.582Z,72.62
2022-10-18T20:41:28.605Z,72.82
2022-10-18T20:44:00.171Z,72.89
2022-10-18T20:46:29.853Z,72.94
2022-10-18T20:48:56.959Z,73.34
2022-10-18T20:51:24.291Z,73.19
2022-10-18T20:53:52.257Z,73.57
2022-10-18T20:56:22.033Z,73.52
2022-10-18T20:58:51.145Z,74.24
2022-10-18T21:01:21.353Z,74.58
2022-10-18T21:03:50.777Z,74.86
2022-10-18T21:06:20.033Z,75.17
2022-10-18T21:08:48.439Z,75.49
2022-10-18T21:11:15.514Z,75.55
2022-10-18T21:13:42.489Z,75.71
2022-10-18T21:16:09.748Z,76.11
2022-10-18T21:18:37.919Z,76.38
2022-10-18T21:21:15.101Z,76.42
2022-10-18T21:23:42.148Z,76.11
2022-10-18T21:26:14.870Z,76.33
2022-10-18T21:28:41.971Z,76.41
2022-10-18T21:31:12.970Z,76.21
2022-10-18T21:33:41.718Z,76.56
2022-10-18T21:36:09.212Z,76.55
2022-10-18T21:38:36.391Z,77.06
2022-10-18T21:41:08.352Z,77.14
2022-10-18T21:43:35.219Z,77.03
2022-10-18T21:46:02.683Z,77.25
2022-10-18T21:48:29.630Z,77.60
2022-10-18T21:50:56.525Z,77.37
2022-10-18T21:53:23.429Z,77.52
2022-10-18T21:55:50.365Z,77.42
2022-10-18T21:58:17.271Z,77.38
2022-10-18T22:00:44.233Z,77.67
2022-10-18T22:03:13.187Z,77.93
2022-10-18T22:05:40.626Z,77.88
2022-10-18T22:08:08.130Z,78.22
2022-10-18T22:10:35.011Z,78.54
2022-10-18T22:13:01.910Z,78.50
2022-10-18T22:15:28.789Z,78.53
2022-10-18T22:17:55.680Z,78.83
2022-10-18T22:20:22.502Z,78.73
2022-10-18T22:22:54.209Z,78.76
2022-10-18T22:25:21.050Z,78.90
2022-10-18T22:27:47.881Z,79.35
2022-10-18T22:30:14.800Z,79.45
2022-10-18T22:32:41.668Z,79.27
2022-10-18T22:35:09.031Z,79.10
2022-10-18T22:37:36.194Z,79.55
2022-10-18T22:40:03.562Z,79.39
2022-10-18T22:42:30.440Z,79.83
2022-10-18T22:44:57.268Z,79.21
2022-10-18T22:47:25.416Z,79.63
2022-10-18T22:49:52.339Z,79.33
2022-10-18T22:52:19.141Z,79.57
2022-10-18T22:54:45.968Z,79.58
2022-10-18T22:57:12.780Z,79.60
2022-10-18T22:59:39.592Z,79.36
2022-10-18T23:02:06.464Z,80.14
2022-10-18T23:04:33.718Z,79.96
2022-10-18T23:07:00.608Z,79.53
2022-10-18T23:09:27.489Z,79.60
2022-10-18T23:11:54.350Z,80.02
2022-10-18T23:14:21.219Z,80.07
2022-10-18T23:16:48.112Z,80.22
2022-10-18T23:19:16.418Z,80.54
2022-10-18T23:21:43.519Z,80.51
2022-10-18T23:24:10.379Z,80.19
2022-10-18T23:26:37.288Z,80.18
2022-10-18T23:29:04.306Z,80.50
2022-10-18T23:31:33.422Z,79.91
2022-10-18T23:34:03.957Z,79.53
2022-10-18T23:36:32.815Z,80.16
2022-10-18T23:38:59.799Z,80.69
2022-10-18T23:41:26.923Z,80.34
2022-10-18T23:43:54.319Z,80.00
2022-10-18T23:46:21.919Z,80.53
2022-10-18T23:48:50.064Z,80.36
2022-10-18T23:51:17.647Z,79.97
2022-10-18T23:53:44.660Z,79.85
2022-10-18T23:56:14.353Z,80.48
2022-10-18T23:58:42.696Z,80.97
